Time;durP1;ratioP1;P1;durP2;ratioP2;P2;SDS_P1;SDS_P2;PMS_P1;PMS_P2;Temp;Humidity;BMP_temperature;BMP_pressure;BME280_temperature;BME280_humidity;BME280_pressure;Samples;Min_cycle;Max_cycle;Signal;HPM_P1;HPM_P2
2022/03/04 00:01:16;;;;;;;10.90;5.63;;;;;;;;;;5024871;28;20036;-83
2022/03/04 00:03:42;;;;;;;8.68;4.00;;;;;;;;;;5028905;28;20025;-82
2022/03/04 00:06:09;;;;;;;7.32;4.43;;;;;;;;;;5022770;28;20314;-84
2022/03/04 00:08:34;;;;;;;10.43;4.22;;;;;;;;;;5020513;28;20037;-87
2022/03/04 00:11:02;;;;;;;7.63;3.88;;;;;;;;;;5027647;28;20022;-84
2022/03/04 00:13:29;;;;;;;9.13;5.30;;;;;;;;;;5020591;28;20381;-86
2022/03/04 00:15:55;;;;;;;10.73;5.47;;;;;;;;;;5027608;28;20079;-82
2022/03/04 00:18:21;;;;;;;10.30;5.50;;;;;;;;;;5023777;28;20033;-83
2022/03/04 00:20:46;;;;;;;9.27;5.35;;;;;;;;;;5025119;28;20040;-82
2022/03/04 00:23:13;;;;;;;9.63;5.13;;;;;;;;;;5025374;28;20029;-84
2022/03/04 00:25:39;;;;;;;7.55;5.72;;;;;;;;;;5024495;28;20038;-83
2022/03/04 00:28:04;;;;;;;8.95;5.20;;;;;;;;;;5018401;28;20096;-83
2022/03/04 00:30:30;;;;;;;9.77;5.25;;;;;;;;;;5028979;28;20022;-85
2022/03/04 00:32:55;;;;;;;9.50;4.57;;;;;;;;;;5015309;28;20025;-83
2022/03/04 00:35:21;;;;;;;8.32;3.80;;;;;;;;;;5024035;28;20535;-84
2022/03/04 00:37:46;;;;;;;4.95;3.78;;;;;;;;;;5027912;28;20116;-85
2022/03/04 00:40:14;;;;;;;7.63;4.55;;;;;;;;;;5036686;28;20045;-85
2022/03/04 00:42:39;;;;;;;11.63;3.92;;;;;;;;;;5035393;28;20029;-86
2022/03/04 00:45:05;;;;;;;7.47;3.90;;;;;;;;;;5023332;28;20033;-84
2022/03/04 00:47:31;;;;;;;9.40;4.43;;;;;;;;;;5024289;28;20049;-85
2022/03/04 00:49:58;;;;;;;9.15;4.88;;;;;;;;;;5025757;28;20033;-84
2022/03/04 00:52:23;;;;;;;7.90;4.13;;;;;;;;;;5022094;28;20425;-86
2022/03/04 00:54:49;;;;;;;6.22;4.35;;;;;;;;;;5025823;28;20148;-86
2022/03/04 00:57:15;;;;;;;8.07;4.85;;;;;;;;;;5025648;28;20055;-83
2022/03/04 00:59:40;;;;;;;7.25;4.03;;;;;;;;;;5020644;28;20025;-86
2022/03/04 01:02:06;;;;;;;5.60;3.60;;;;;;;;;;5027070;28;20439;-85
2022/03/04 01:04:31;;;;;;;9.85;4.47;;;;;;;;;;5018592;28;20040;-86
2022/03/04 01:06:57;;;;;;;7.20;5.03;;;;;;;;;;5024707;28;20104;-87
2022/03/04 01:09:22;;;;;;;8.00;5.30;;;;;;;;;;5020442;28;20104;-88
2022/03/04 01:11:48;;;;;;;7.35;4.40;;;;;;;;;;5022749;28;20029;-86
2022/03/04 01:14:13;;;;;;;7.60;3.85;;;;;;;;;;5021306;28;20033;-84
2022/03/04 01:16:39;;;;;;;7.40;5.05;;;;;;;;;;5029738;28;20056;-85
2022/03/04 01:19:05;;;;;;;9.65;5.13;;;;;;;;;;5023640;28;20037;-85
2022/03/04 01:21:30;;;;;;;10.95;4.90;;;;;;;;;;5022061;28;20029;-84
2022/03/04 01:23:56;;;;;;;8.80;5.13;;;;;;;;;;5020069;28;20389;-87
2022/03/04 01:26:21;;;;;;;8.63;4.65;;;;;;;;;;5024772;28;20552;-86
2022/03/04 01:28:47;;;;;;;9.77;4.85;;;;;;;;;;5020515;28;20018;-86
2022/03/04 01:31:12;;;;;;;7.88;4.57;;;;;;;;;;5019469;28;20083;-84
2022/03/04 01:33:39;;;;;;;7.70;4.40;;;;;;;;;;5022032;28;20029;-87
2022/03/04 01:36:05;;;;;;;8.25;4.53;;;;;;;;;;5019961;28;20036;-86
2022/03/04 01:38:30;;;;;;;9.02;5.05;;;;;;;;;;5020825;28;20025;-87
2022/03/04 01:40:56;;;;;;;8.40;6.32;;;;;;;;;;5022425;28;20037;-86
2022/03/04 01:43:22;;;;;;;10.70;5.90;;;;;;;;;;5017365;28;20035;-87
2022/03/04 01:45:47;;;;;;;10.57;5.97;;;;;;;;;;5023018;28;20034;-85
2022/03/04 01:48:13;;;;;;;12.20;6.75;;;;;;;;;;5021771;28;20096;-85
2022/03/04 01:50:40;;;;;;;13.02;7.43;;;;;;;;;;5021563;28;20037;-92
2022/03/04 01:53:06;;;;;;;11.75;6.07;;;;;;;;;;5017266;28;20511;-84
2022/03/04 01:55:31;;;;;;;13.48;7.10;;;;;;;;;;5024624;28;20022;-84
2022/03/04 01:57:57;;;;;;;16.30;8.38;;;;;;;;;;5021098;28;20109;-87
2022/03/04 02:00:23;;;;;;;12.95;7.15;;;;;;;;;;5020815;28;20084;-86
2022/03/04 02:02:48;;;;;;;14.00;8.85;;;;;;;;;;5026356;28;20451;-84
2022/03/04 02:05:16;;;;;;;16.58;8.35;;;;;;;;;;5025173;28;20110;-84
2022/03/04 02:07:43;;;;;;;12.88;8.13;;;;;;;;;;5024541;28;20064;-85
2022/03/04 02:10:09;;;;;;;13.50;6.55;;;;;;;;;;5015318;28;20022;-85
2022/03/04 02:12:35;;;;;;;9.63;5.85;;;;;;;;;;5019855;28;20087;-87
2022/03/04 02:15:03;;;;;;;22.70;12.43;;;;;;;;;;5023413;28;20049;-88
2022/03/04 02:17:28;;;;;;;11.98;6.47;;;;;;;;;;5020849;28;20030;-86
2022/03/04 02:19:54;;;;;;;19.20;11.75;;;;;;;;;;5018473;28;20029;-85
2022/03/04 02:22:20;;;;;;;16.70;9.82;;;;;;;;;;5026403;28;20025;-82
2022/03/04 02:24:46;;;;;;;23.48;11.45;;;;;;;;;;5023871;28;20044;-85
2022/03/04 02:27:11;;;;;;;12.07;8.18;;;;;;;;;;5023027;28;20030;-85
2022/03/04 02:29:37;;;;;;;16.10;8.50;;;;;;;;;;5024174;28;20108;-82
2022/03/04 02:32:03;;;;;;;20.33;11.68;;;;;;;;;;5023725;28;20055;-86
2022/03/04 02:34:29;;;;;;;10.60;6.63;;;;;;;;;;5024073;28;20374;-85
2022/03/04 02:36:55;;;;;;;11.07;6.72;;;;;;;;;;5025656;28;20025;-89
2022/03/04 02:39:20;;;;;;;20.63;11.75;;;;;;;;;;5023199;28;20533;-86
2022/03/04 02:41:46;;;;;;;19.23;9.60;;;;;;;;;;5024067;28;20437;-87
2022/03/04 02:44:13;;;;;;;14.70;7.47;;;;;;;;;;5026687;28;20389;-82
2022/03/04 02:46:39;;;;;;;15.15;7.75;;;;;;;;;;5021474;28;20030;-87
2022/03/04 02:49:06;;;;;;;12.95;8.98;;;;;;;;;;5025728;28;20034;-85
2022/03/04 02:51:32;;;;;;;14.77;7.78;;;;;;;;;;5024921;28;20079;-85
2022/03/04 02:53:57;;;;;;;15.13;8.07;;;;;;;;;;5021360;28;20029;-84
2022/03/04 02:56:23;;;;;;;20.67;10.23;;;;;;;;;;5019707;28;20025;-83
2022/03/04 02:58:50;;;;;;;14.77;7.53;;;;;;;;;;5022337;28;20022;-84
2022/03/04 03:01:16;;;;;;;12.43;7.68;;;;;;;;;;5021870;28;20079;-84
2022/03/04 03:03:42;;;;;;;8.27;5.93;;;;;;;;;;5019426;28;20121;-83
2022/03/04 03:06:08;;;;;;;11.95;7.80;;;;;;;;;;5018873;28;20133;-83
2022/03/04 03:08:33;;;;;;;13.00;8.63;;;;;;;;;;5020264;28;20433;-85
2022/03/04 03:10:59;;;;;;;9.90;6.78;;;;;;;;;;5020190;28;20032;-83
2022/03/04 03:13:25;;;;;;;12.95;7.65;;;;;;;;;;5022466;28;20042;-82
2022/03/04 03:15:50;;;;;;;13.77;7.72;;;;;;;;;;5019965;28;20029;-85
2022/03/04 03:18:17;;;;;;;12.80;6.97;;;;;;;;;;5020876;28;20032;-83
2022/03/04 03:20:43;;;;;;;12.05;6.90;;;;;;;;;;5021858;28;20025;-85
2022/03/04 03:23:09;;;;;;;11.82;7.43;;;;;;;;;;5021445;28;20036;-84
2022/03/04 03:25:35;;;;;;;9.18;6.70;;;;;;;;;;5023991;28;20030;-85
2022/03/04 03:28:02;;;;;;;11.70;7.32;;;;;;;;;;5023669;28;20367;-82
2022/03/04 03:30:28;;;;;;;12.32;6.15;;;;;;;;;;5021785;28;20083;-82
2022/03/04 03:32:53;;;;;;;13.50;7.70;;;;;;;;;;5023551;28;20025;-83
2022/03/04 03:35:19;;;;;;;11.48;6.57;;;;;;;;;;5022840;28;20037;-83
2022/03/04 03:37:44;;;;;;;15.68;6.80;;;;;;;;;;5023334;28;20117;-82
2022/03/04 03:40:12;;;;;;;10.93;7.10;;;;;;;;;;5023357;28;20057;-82
2022/03/04 03:42:39;;;;;;;9.50;6.00;;;;;;;;;;5014483;28;20478;-84
2022/03/04 03:45:06;;;;;;;11.35;6.30;;;;;;;;;;5021408;28;20021;-85
2022/03/04 03:47:31;;;;;;;23.50;11.45;;;;;;;;;;5024705;28;20026;-83
2022/03/04 03:49:57;;;;;;;12.07;7.22;;;;;;;;;;5017160;28;20535;-85
2022/03/04 03:52:22;;;;;;;16.67;8.45;;;;;;;;;;5029440;28;20033;-86
2022/03/04 03:54:48;;;;;;;11.50;7.10;;;;;;;;;;5021367;28;20171;-88
2022/03/04 03:57:16;;;;;;;15.82;8.07;;;;;;;;;;5025766;28;20397;-84
2022/03/04 03:59:42;;;;;;;16.05;9.45;;;;;;;;;;5026107;28;21835;-85
2022/03/04 04:02:08;;;;;;;11.77;6.53;;;;;;;;;;5018373;28;20101;-85
2022/03/04 04:04:34;;;;;;;15.32;7.03;;;;;;;;;;5037497;28;20033;-84
2022/03/04 04:07:09;;;;;;;9.80;6.57;;;;;;;;;;5025281;28;20025;-83
2022/03/04 04:09:35;;;;;;;9.38;6.45;;;;;;;;;;5023503;28;20367;-83
2022/03/04 04:12:00;;;;;;;8.73;5.15;;;;;;;;;;5024856;28;20092;-85
2022/03/04 04:14:27;;;;;;;12.48;7.63;;;;;;;;;;5018317;28;20392;-86
2022/03/04 04:16:53;;;;;;;14.98;8.90;;;;;;;;;;5025614;28;20025;-84
2022/03/04 04:19:19;;;;;;;10.00;7.18;;;;;;;;;;5024276;28;20038;-85
2022/03/04 04:21:45;;;;;;;9.23;6.18;;;;;;;;;;5025271;28;20457;-87
2022/03/04 04:24:10;;;;;;;13.07;7.50;;;;;;;;;;5026574;28;20105;-83
2022/03/04 04:26:36;;;;;;;12.10;7.72;;;;;;;;;;5016686;28;20103;-85
2022/03/04 04:29:02;;;;;;;13.70;8.00;;;;;;;;;;5023476;28;20043;-84
2022/03/04 04:31:28;;;;;;;10.15;7.18;;;;;;;;;;5021756;28;20104;-84
2022/03/04 04:33:54;;;;;;;16.98;8.00;;;;;;;;;;5021760;28;20026;-83
2022/03/04 04:36:19;;;;;;;11.98;6.53;;;;;;;;;;5023986;28;20033;-86
2022/03/04 04:38:45;;;;;;;15.20;8.23;;;;;;;;;;5023058;28;20078;-85
2022/03/04 04:41:11;;;;;;;17.83;8.85;;;;;;;;;;5021732;28;20437;-83
2022/03/04 04:43:37;;;;;;;13.00;7.88;;;;;;;;;;5025444;28;20068;-85
2022/03/04 04:46:04;;;;;;;14.80;7.78;;;;;;;;;;5026447;28;20026;-87
2022/03/04 04:48:29;;;;;;;14.23;8.43;;;;;;;;;;5028108;28;20434;-89
2022/03/04 04:50:56;;;;;;;17.58;10.25;;;;;;;;;;5024240;28;20104;-86
2022/03/04 04:53:21;;;;;;;13.18;7.40;;;;;;;;;;5024012;28;20038;-84
2022/03/04 04:55:47;;;;;;;12.27;7.50;;;;;;;;;;5025750;28;20507;-85
2022/03/04 04:58:12;;;;;;;17.67;9.60;;;;;;;;;;5024313;28;20033;-85
2022/03/04 05:00:38;;;;;;;9.73;7.25;;;;;;;;;;5019544;28;20030;-83
2022/03/04 05:03:03;;;;;;;12.27;7.82;;;;;;;;;;5023498;28;20612;-86
2022/03/04 05:05:29;;;;;;;13.98;7.18;;;;;;;;;;5023177;28;20065;-84
2022/03/04 05:07:54;;;;;;;14.70;8.75;;;;;;;;;;5022540;28;20092;-84
2022/03/04 05:10:20;;;;;;;11.95;7.80;;;;;;;;;;5017674;28;20022;-88
2022/03/04 05:12:45;;;;;;;13.32;7.95;;;;;;;;;;5037865;28;20519;-85
2022/03/04 05:15:11;;;;;;;13.15;7.75;;;;;;;;;;5019845;28;20125;-81
2022/03/04 05:17:38;;;;;;;17.05;8.93;;;;;;;;;;5024495;28;20049;-84
2022/03/04 05:20:05;;;;;;;16.05;8.95;;;;;;;;;;5019987;28;20025;-84
2022/03/04 05:22:30;;;;;;;16.23;7.85;;;;;;;;;;5028192;28;20112;-84
2022/03/04 05:24:56;;;;;;;16.77;8.45;;;;;;;;;;5023756;28;20080;-82
2022/03/04 05:27:21;;;;;;;15.77;8.95;;;;;;;;;;5027555;28;20071;-84
2022/03/04 05:29:47;;;;;;;13.38;8.02;;;;;;;;;;5023991;28;20041;-85
2022/03/04 05:32:13;;;;;;;16.45;9.18;;;;;;;;;;5021242;28;20036;-88
2022/03/04 05:34:40;;;;;;;21.65;10.98;;;;;;;;;;5024900;28;20056;-85
2022/03/04 05:37:06;;;;;;;16.52;8.15;;;;;;;;;;5022421;28;20048;-86
2022/03/04 05:39:32;;;;;;;16.58;9.50;;;;;;;;;;5022312;28;20108;-84
2022/03/04 05:41:57;;;;;;;17.35;9.90;;;;;;;;;;5024400;28;20028;-83
2022/03/04 05:44:23;;;;;;;19.42;10.10;;;;;;;;;;5025272;28;20021;-84
2022/03/04 05:46:48;;;;;;;13.40;7.82;;;;;;;;;;5023692;28;20057;-85
2022/03/04 05:49:14;;;;;;;24.77;13.65;;;;;;;;;;5022447;28;20108;-83
2022/03/04 05:51:39;;;;;;;20.65;10.48;;;;;;;;;;5026780;28;20029;-84
2022/03/04 05:54:05;;;;;;;20.95;10.13;;;;;;;;;;5027472;28;20022;-85
2022/03/04 05:56:30;;;;;;;16.65;9.88;;;;;;;;;;5019667;28;20022;-84
2022/03/04 05:58:55;;;;;;;18.25;10.55;;;;;;;;;;5020180;28;20099;-85
2022/03/04 06:01:21;;;;;;;13.77;9.38;;;;;;;;;;5016801;28;20033;-82
2022/03/04 06:03:47;;;;;;;20.70;13.27;;;;;;;;;;5019758;28;20467;-87
2022/03/04 06:06:14;;;;;;;24.65;15.30;;;;;;;;;;5037011;28;20091;-83
2022/03/04 06:08:40;;;;;;;29.83;16.00;;;;;;;;;;5018332;28;20034;-85
2022/03/04 06:11:08;;;;;;;21.58;14.10;;;;;;;;;;5018104;28;20036;-88
2022/03/04 06:13:35;;;;;;;24.95;14.73;;;;;;;;;;5017377;28;21213;-85
2022/03/04 06:16:01;;;;;;;20.73;13.60;;;;;;;;;;5023174;28;20049;-85
2022/03/04 06:18:26;;;;;;;27.98;14.48;;;;;;;;;;5026548;28;20029;-86
2022/03/04 06:20:52;;;;;;;20.63;12.60;;;;;;;;;;5018210;28;20111;-86
2022/03/04 06:23:18;;;;;;;23.92;13.73;;;;;;;;;;5017536;28;20041;-85
2022/03/04 06:25:43;;;;;;;25.52;14.80;;;;;;;;;;5025717;28;20037;-83
2022/03/04 06:28:09;;;;;;;25.98;15.57;;;;;;;;;;5015211;28;20116;-88
2022/03/04 06:30:38;;;;;;;32.83;17.10;;;;;;;;;;5018730;28;20036;-85
2022/03/04 06:35:50;;;;;;;29.05;16.95;;;;;;;;;;5023184;28;20040;-83
2022/03/04 06:38:17;;;;;;;33.53;18.40;;;;;;;;;;5020607;28;20025;-84
2022/03/04 06:40:43;;;;;;;35.10;18.70;;;;;;;;;;5021957;28;20110;-83
2022/03/04 06:43:09;;;;;;;36.95;19.88;;;;;;;;;;5016219;28;20037;-85
2022/03/04 06:45:35;;;;;;;30.40;18.98;;;;;;;;;;5019513;28;20477;-83
2022/03/04 06:48:01;;;;;;;33.63;19.10;;;;;;;;;;5016872;28;20104;-83
2022/03/04 06:50:26;;;;;;;36.20;21.38;;;;;;;;;;5036329;28;20432;-85
2022/03/04 06:52:53;;;;;;;32.05;20.55;;;;;;;;;;5032526;28;20477;-88
2022/03/04 06:55:18;;;;;;;35.53;20.27;;;;;;;;;;5019138;28;20056;-88
2022/03/04 06:57:46;;;;;;;41.08;21.33;;;;;;;;;;5020212;28;20034;-85
2022/03/04 07:00:12;;;;;;;45.83;25.23;;;;;;;;;;5022174;28;20029;-82
2022/03/04 07:02:38;;;;;;;51.92;28.45;;;;;;;;;;5022086;28;20017;-83
2022/03/04 07:05:05;;;;;;;44.28;27.17;;;;;;;;;;5014997;28;20053;-84
2022/03/04 07:07:31;;;;;;;46.72;26.02;;;;;;;;;;5019782;28;20021;-82
2022/03/04 07:09:57;;;;;;;45.33;26.20;;;;;;;;;;5019155;28;20481;-86
2022/03/04 07:12:22;;;;;;;44.95;25.00;;;;;;;;;;5020757;28;20024;-83
2022/03/04 07:14:48;;;;;;;48.42;24.48;;;;;;;;;;5015549;28;20100;-84
2022/03/04 07:17:14;;;;;;;47.65;26.50;;;;;;;;;;5022253;28;20030;-85
2022/03/04 07:19:40;;;;;;;41.28;23.60;;;;;;;;;;5020621;28;20464;-84
2022/03/04 07:22:06;;;;;;;40.75;25.13;;;;;;;;;;5019567;28;20017;-82
2022/03/04 07:24:31;;;;;;;40.42;23.65;;;;;;;;;;5022002;28;20083;-85
2022/03/04 07:26:58;;;;;;;44.80;25.23;;;;;;;;;;5016558;28;20021;-85
2022/03/04 07:29:24;;;;;;;42.10;24.52;;;;;;;;;;5020784;28;20458;-85
2022/03/04 07:31:53;;;;;;;40.72;25.45;;;;;;;;;;5021395;28;20068;-85
2022/03/04 07:34:19;;;;;;;42.97;24.98;;;;;;;;;;5022348;28;20021;-84
2022/03/04 07:36:46;;;;;;;40.40;24.48;;;;;;;;;;5016626;28;20076;-84
2022/03/04 07:39:11;;;;;;;50.05;27.30;;;;;;;;;;5022122;28;20528;-83
2022/03/04 07:41:37;;;;;;;41.65;22.60;;;;;;;;;;5023511;28;20104;-83
2022/03/04 07:44:03;;;;;;;41.45;24.73;;;;;;;;;;5028729;28;20025;-85
2022/03/04 07:46:29;;;;;;;36.13;21.05;;;;;;;;;;5026426;28;20121;-84
2022/03/04 07:48:55;;;;;;;38.00;23.65;;;;;;;;;;5024934;28;20501;-82
2022/03/04 07:51:20;;;;;;;34.10;20.45;;;;;;;;;;5037531;28;20389;-85
2022/03/04 07:53:45;;;;;;;24.05;15.02;;;;;;;;;;5022308;28;20029;-84
2022/03/04 07:56:11;;;;;;;38.60;21.77;;;;;;;;;;5023446;28;20100;-86
2022/03/04 07:58:37;;;;;;;37.13;23.45;;;;;;;;;;5020148;28;20052;-84
2022/03/04 08:01:03;;;;;;;42.20;25.50;;;;;;;;;;5021883;28;20046;-82
2022/03/04 08:03:29;;;;;;;45.17;25.63;;;;;;;;;;5025862;28;20025;-85
2022/03/04 08:05:54;;;;;;;43.35;25.33;;;;;;;;;;5035373;28;20111;-87
2022/03/04 08:08:20;;;;;;;82.88;46.78;;;;;;;;;;5022386;28;20037;-85
2022/03/04 08:10:45;;;;;;;47.58;27.75;;;;;;;;;;5029631;28;20021;-84
2022/03/04 08:13:11;;;;;;;40.45;23.60;;;;;;;;;;5036843;28;20108;-84
2022/03/04 08:15:36;;;;;;;40.35;23.33;;;;;;;;;;5028128;28;20069;-85
2022/03/04 08:18:02;;;;;;;28.10;19.42;;;;;;;;;;5026337;28;20100;-84
2022/03/04 08:20:29;;;;;;;32.70;19.92;;;;;;;;;;5020870;28;20500;-85
2022/03/04 08:22:54;;;;;;;37.40;21.58;;;;;;;;;;5020640;28;20477;-85
2022/03/04 08:25:20;;;;;;;29.45;16.45;;;;;;;;;;5020753;28;20090;-86
2022/03/04 08:27:45;;;;;;;30.33;19.25;;;;;;;;;;5035633;28;20025;-85
2022/03/04 08:30:12;;;;;;;24.25;14.55;;;;;;;;;;5017729;28;20107;-83
2022/03/04 08:32:39;;;;;;;25.48;16.10;;;;;;;;;;5021905;28;20037;-85
2022/03/04 08:35:05;;;;;;;28.02;18.75;;;;;;;;;;5019808;28;20060;-84
2022/03/04 08:37:31;;;;;;;35.30;20.90;;;;;;;;;;5024148;28;20440;-83
2022/03/04 08:39:57;;;;;;;37.95;20.80;;;;;;;;;;5021634;28;20021;-85
2022/03/04 08:42:24;;;;;;;35.42;21.88;;;;;;;;;;5022613;28;20105;-84
2022/03/04 08:44:50;;;;;;;37.13;22.15;;;;;;;;;;5021594;28;20029;-85
2022/03/04 08:47:15;;;;;;;30.40;20.77;;;;;;;;;;5019963;28;20458;-84
2022/03/04 08:49:41;;;;;;;30.38;19.67;;;;;;;;;;5016195;28;20485;-83
2022/03/04 08:52:07;;;;;;;25.08;15.80;;;;;;;;;;5023856;28;20037;-85
2022/03/04 08:54:32;;;;;;;30.17;17.90;;;;;;;;;;5035787;28;20072;-86
2022/03/04 08:56:58;;;;;;;21.83;14.32;;;;;;;;;;5019119;28;20092;-85
2022/03/04 08:59:23;;;;;;;32.40;17.17;;;;;;;;;;5015792;28;20061;-83
2022/03/04 09:01:49;;;;;;;69.32;37.22;;;;;;;;;;5018334;28;20097;-84
2022/03/04 09:04:17;;;;;;;35.15;20.00;;;;;;;;;;5013031;28;20041;-86
2022/03/04 09:06:44;;;;;;;41.70;21.55;;;;;;;;;;5016876;28;20049;-86
2022/03/04 09:09:09;;;;;;;37.72;19.10;;;;;;;;;;5015561;28;20061;-84
2022/03/04 09:11:35;;;;;;;32.40;16.45;;;;;;;;;;5022933;28;20438;-83
2022/03/04 09:14:01;;;;;;;40.63;20.13;;;;;;;;;;5023060;28;20373;-85
2022/03/04 09:16:29;;;;;;;25.02;14.40;;;;;;;;;;5021838;28;20108;-84
2022/03/04 09:18:54;;;;;;;26.52;14.65;;;;;;;;;;5023031;28;20504;-84
2022/03/04 09:21:20;;;;;;;25.10;14.27;;;;;;;;;;5021450;28;21506;-84
2022/03/04 09:23:45;;;;;;;22.17;13.23;;;;;;;;;;5023938;28;20068;-85
2022/03/04 09:26:11;;;;;;;21.02;12.18;;;;;;;;;;5020045;28;20132;-85
2022/03/04 09:28:38;;;;;;;41.30;18.92;;;;;;;;;;5019832;28;20037;-82
2022/03/04 09:31:03;;;;;;;21.73;12.82;;;;;;;;;;5018721;28;20025;-84
2022/03/04 09:33:29;;;;;;;21.45;11.35;;;;;;;;;;5017519;28;20030;-85
2022/03/04 09:35:54;;;;;;;14.98;9.63;;;;;;;;;;5030695;28;20037;-86
2022/03/04 09:38:20;;;;;;;15.25;10.20;;;;;;;;;;5036264;28;20108;-85
2022/03/04 09:40:48;;;;;;;18.85;11.15;;;;;;;;;;5017839;28;20036;-84
2022/03/04 09:43:15;;;;;;;23.30;14.43;;;;;;;;;;5021267;28;20076;-88
2022/03/04 09:45:41;;;;;;;52.00;29.48;;;;;;;;;;5023731;28;20124;-84
2022/03/04 09:48:11;;;;;;;17.13;11.20;;;;;;;;;;5019063;28;20057;-86
2022/03/04 09:50:38;;;;;;;19.92;10.70;;;;;;;;;;5020218;28;20466;-84
2022/03/04 09:53:09;;;;;;;19.55;10.80;;;;;;;;;;5016019;28;20034;-87
2022/03/04 09:55:34;;;;;;;16.23;11.40;;;;;;;;;;5020898;28;20525;-86
2022/03/04 09:58:00;;;;;;;15.43;10.68;;;;;;;;;;5020279;28;20033;-84
2022/03/04 10:00:26;;;;;;;15.68;10.13;;;;;;;;;;5018267;28;20026;-84
2022/03/04 10:02:52;;;;;;;17.90;10.18;;;;;;;;;;5008406;28;20107;-84
2022/03/04 10:05:17;;;;;;;15.10;10.73;;;;;;;;;;5013736;28;20397;-84
2022/03/04 10:07:47;;;;;;;16.45;9.95;;;;;;;;;;5015106;28;20022;-86
2022/03/04 10:10:18;;;;;;;19.13;11.67;;;;;;;;;;5032875;28;20033;-87
2022/03/04 10:12:47;;;;;;;15.48;11.25;;;;;;;;;;5015470;28;20109;-82
2022/03/04 10:15:13;;;;;;;18.35;10.88;;;;;;;;;;5030366;28;20413;-84
2022/03/04 10:17:39;;;;;;;19.88;11.15;;;;;;;;;;5013697;28;20044;-85
2022/03/04 10:20:12;;;;;;;16.08;11.23;;;;;;;;;;5017098;28;20052;-83
2022/03/04 10:22:46;;;;;;;17.02;9.95;;;;;;;;;;5012804;28;20032;-83
2022/03/04 10:25:26;;;;;;;12.77;9.82;;;;;;;;;;5014545;28;20049;-83
2022/03/04 10:27:52;;;;;;;19.05;10.32;;;;;;;;;;5016955;28;20058;-84
2022/03/04 10:30:32;;;;;;;20.55;11.00;;;;;;;;;;5021191;28;20473;-83
2022/03/04 10:33:17;;;;;;;21.25;11.20;;;;;;;;;;5023523;28;20089;-85
2022/03/04 10:35:44;;;;;;;18.23;11.90;;;;;;;;;;5020956;28;20501;-84
2022/03/04 10:38:24;;;;;;;22.17;11.30;;;;;;;;;;5015559;28;20377;-85
2022/03/04 10:40:50;;;;;;;25.83;13.40;;;;;;;;;;5008511;28;20058;-85
2022/03/04 10:43:23;;;;;;;19.52;11.98;;;;;;;;;;5012944;28;20072;-86
2022/03/04 10:45:58;;;;;;;24.05;14.00;;;;;;;;;;5016736;28;20030;-87
2022/03/04 10:48:24;;;;;;;17.85;12.02;;;;;;;;;;5016437;28;20021;-85
2022/03/04 10:50:55;;;;;;;18.90;12.45;;;;;;;;;;5009956;28;20488;-84
2022/03/04 10:53:23;;;;;;;19.13;13.15;;;;;;;;;;5026236;28;20052;-82
2022/03/04 10:55:56;;;;;;;24.17;12.90;;;;;;;;;;5025410;28;20536;-84
2022/03/04 10:58:30;;;;;;;22.90;13.70;;;;;;;;;;5009903;28;20022;-85
2022/03/04 11:01:08;;;;;;;20.88;12.30;;;;;;;;;;5030843;28;20040;-83
2022/03/04 11:03:34;;;;;;;23.17;12.70;;;;;;;;;;5020376;28;20017;-84
2022/03/04 11:06:03;;;;;;;21.35;12.90;;;;;;;;;;5019867;28;20041;-84
2022/03/04 11:08:29;;;;;;;21.40;14.60;;;;;;;;;;5036613;28;20031;-86
2022/03/04 11:10:56;;;;;;;27.85;13.90;;;;;;;;;;5024677;28;20415;-85
2022/03/04 11:13:22;;;;;;;28.98;14.50;;;;;;;;;;5007614;28;20393;-81
2022/03/04 11:15:49;;;;;;;24.77;14.77;;;;;;;;;;5021287;28;20025;-86
2022/03/04 11:18:16;;;;;;;20.65;13.60;;;;;;;;;;5028022;28;20079;-85
2022/03/04 11:20:44;;;;;;;20.83;12.90;;;;;;;;;;5023350;28;20029;-86
2022/03/04 11:23:16;;;;;;;18.33;12.80;;;;;;;;;;5029209;28;20033;-83
2022/03/04 11:25:44;;;;;;;23.95;14.25;;;;;;;;;;5022713;28;20069;-84
2022/03/04 11:28:15;;;;;;;21.60;14.02;;;;;;;;;;5021242;28;20545;-85
2022/03/04 11:30:44;;;;;;;26.10;14.68;;;;;;;;;;5026884;28;20466;-83
2022/03/04 11:33:15;;;;;;;22.77;14.32;;;;;;;;;;5018158;28;20029;-83
2022/03/04 11:35:41;;;;;;;21.20;14.10;;;;;;;;;;5019398;28;20037;-83
2022/03/04 11:38:07;;;;;;;23.70;15.27;;;;;;;;;;5018589;28;20416;-84
2022/03/04 11:40:35;;;;;;;22.15;13.85;;;;;;;;;;5023745;28;20048;-84
2022/03/04 11:43:02;;;;;;;29.70;14.95;;;;;;;;;;5022197;28;20025;-81
2022/03/04 11:45:35;;;;;;;24.63;14.15;;;;;;;;;;5024826;28;20025;-82
2022/03/04 11:48:08;;;;;;;27.27;13.90;;;;;;;;;;5019023;28;20478;-84
2022/03/04 11:50:36;;;;;;;23.95;14.77;;;;;;;;;;5000702;28;20029;-87
2022/03/04 11:53:22;;;;;;;26.48;16.20;;;;;;;;;;5034056;28;20445;-83
2022/03/04 11:56:14;;;;;;;23.80;14.23;;;;;;;;;;5018691;28;20017;-86
2022/03/04 11:59:07;;;;;;;24.38;14.15;;;;;;;;;;5019083;28;20040;-85
2022/03/04 12:01:38;;;;;;;25.13;14.40;;;;;;;;;;5015330;28;20512;-84
2022/03/04 12:04:14;;;;;;;24.75;13.32;;;;;;;;;;5036860;28;20116;-83
2022/03/04 12:06:41;;;;;;;22.92;14.35;;;;;;;;;;5037067;28;20057;-85
2022/03/04 12:09:31;;;;;;;24.42;14.30;;;;;;;;;;5023020;28;20021;-87
2022/03/04 12:12:12;;;;;;;17.52;12.32;;;;;;;;;;5024719;28;20129;-83
2022/03/04 12:14:47;;;;;;;22.70;14.43;;;;;;;;;;5017777;28;20052;-84
2022/03/04 12:17:12;;;;;;;23.27;12.68;;;;;;;;;;5043174;28;20376;-85
2022/03/04 12:19:38;;;;;;;19.30;11.57;;;;;;;;;;5025425;28;20029;-84
2022/03/04 12:22:05;;;;;;;27.58;14.93;;;;;;;;;;5019480;28;20029;-85
2022/03/04 12:24:32;;;;;;;22.55;14.00;;;;;;;;;;5021159;28;20064;-84
2022/03/04 12:26:58;;;;;;;17.70;11.88;;;;;;;;;;5023617;28;20518;-84
2022/03/04 12:29:44;;;;;;;18.75;12.02;;;;;;;;;;5022772;28;20099;-85
2022/03/04 12:32:11;;;;;;;37.72;19.67;;;;;;;;;;5036574;28;20058;-84
2022/03/04 12:34:41;;;;;;;24.27;14.55;;;;;;;;;;5027315;28;20377;-85
2022/03/04 12:37:14;;;;;;;22.73;13.00;;;;;;;;;;5016453;28;20478;-85
2022/03/04 12:39:40;;;;;;;23.77;14.05;;;;;;;;;;5024396;28;20112;-84
2022/03/04 12:42:07;;;;;;;22.13;13.43;;;;;;;;;;5021262;28;20109;-84
2022/03/04 12:44:34;;;;;;;20.23;12.75;;;;;;;;;;5018161;28;20029;-85
2022/03/04 12:47:00;;;;;;;16.50;10.15;;;;;;;;;;5021310;28;20369;-85
2022/03/04 12:49:28;;;;;;;18.92;10.95;;;;;;;;;;5020080;28;20043;-82
2022/03/04 12:51:54;;;;;;;16.65;10.20;;;;;;;;;;5015956;28;20060;-84
2022/03/04 12:54:25;;;;;;;14.77;10.38;;;;;;;;;;5016151;28;20541;-84
2022/03/04 12:56:55;;;;;;;16.38;11.30;;;;;;;;;;5016461;28;20025;-84
2022/03/04 12:59:20;;;;;;;22.55;10.82;;;;;;;;;;5018672;28;20394;-84
2022/03/04 13:01:50;;;;;;;13.00;8.50;;;;;;;;;;5015627;28;20033;-84
2022/03/04 13:04:16;;;;;;;15.17;11.20;;;;;;;;;;5029876;28;20025;-83
2022/03/04 13:06:42;;;;;;;13.75;7.60;;;;;;;;;;5027756;28;20095;-84
2022/03/04 13:09:09;;;;;;;13.40;7.65;;;;;;;;;;5018499;28;20037;-84
2022/03/04 13:11:40;;;;;;;12.40;7.15;;;;;;;;;;5022587;28;20030;-85
2022/03/04 13:14:11;;;;;;;11.00;7.25;;;;;;;;;;5022372;28;20037;-86
2022/03/04 13:16:39;;;;;;;12.50;7.22;;;;;;;;;;5019408;28;20519;-85
2022/03/04 13:19:07;;;;;;;12.30;8.18;;;;;;;;;;5020118;28;20096;-86
2022/03/04 13:21:38;;;;;;;17.08;9.48;;;;;;;;;;5021627;28;20063;-86
2022/03/04 13:24:08;;;;;;;14.43;10.50;;;;;;;;;;5023161;28;20055;-83
2022/03/04 13:26:33;;;;;;;16.42;9.95;;;;;;;;;;5015450;28;20026;-84
2022/03/04 13:29:00;;;;;;;17.63;8.20;;;;;;;;;;5023054;28;20041;-82
2022/03/04 13:31:28;;;;;;;13.73;8.07;;;;;;;;;;5016897;28;20037;-85
2022/03/04 13:34:03;;;;;;;15.30;8.13;;;;;;;;;;5017867;28;20084;-84
2022/03/04 13:36:47;;;;;;;11.10;7.18;;;;;;;;;;5017888;28;20037;-83
2022/03/04 13:39:24;;;;;;;10.68;5.57;;;;;;;;;;5020237;28;20055;-83
2022/03/04 13:42:25;;;;;;;7.85;5.35;;;;;;;;;;5019693;28;20072;-83
2022/03/04 13:45:04;;;;;;;12.52;7.28;;;;;;;;;;5015117;28;20042;-82
2022/03/04 13:47:42;;;;;;;8.32;5.15;;;;;;;;;;5022366;28;20060;-85
2022/03/04 13:50:16;;;;;;;12.00;7.20;;;;;;;;;;5025897;28;20021;-85
2022/03/04 13:53:08;;;;;;;11.35;7.38;;;;;;;;;;5017362;28;20022;-82
2022/03/04 13:56:00;;;;;;;10.70;6.50;;;;;;;;;;5017665;28;20047;-83
2022/03/04 13:58:30;;;;;;;12.77;6.47;;;;;;;;;;5015868;28;20038;-86
2022/03/04 14:01:00;;;;;;;8.75;5.68;;;;;;;;;;5020880;28;20033;-84
2022/03/04 14:03:28;;;;;;;13.75;6.25;;;;;;;;;;5025608;28;20036;-84
2022/03/04 14:06:02;;;;;;;7.85;5.25;;;;;;;;;;5020161;28;20054;-84
2022/03/04 14:08:30;;;;;;;8.38;5.15;;;;;;;;;;5020448;28;20491;-85
2022/03/04 14:10:56;;;;;;;9.18;5.20;;;;;;;;;;5019919;28;20041;-86
2022/03/04 14:13:23;;;;;;;9.93;5.47;;;;;;;;;;5019845;28;20038;-84
2022/03/04 14:15:50;;;;;;;7.22;5.30;;;;;;;;;;5021936;28;20441;-86
2022/03/04 14:18:18;;;;;;;7.78;4.93;;;;;;;;;;5024975;28;20528;-85
2022/03/04 14:20:45;;;;;;;10.18;4.93;;;;;;;;;;5021640;28;20031;-86
2022/03/04 14:23:11;;;;;;;7.93;5.13;;;;;;;;;;5022308;28;20237;-83
2022/03/04 14:25:38;;;;;;;8.90;6.30;;;;;;;;;;5017962;28;20041;-85
2022/03/04 14:28:05;;;;;;;16.52;10.68;;;;;;;;;;5022863;28;20021;-86
2022/03/04 14:30:33;;;;;;;7.88;5.95;;;;;;;;;;5019788;28;20468;-85